createdAt,value
2022-07-28T00:01:28.142Z,3.67
2022-07-28T00:03:01.486Z,6.17
2022-07-28T00:04:35.253Z,4.63
2022-07-28T00:06:09.270Z,3.87
2022-07-28T00:07:42.813Z,4.37
2022-07-28T00:09:15.070Z,4.47
2022-07-28T00:10:48.383Z,4.67
2022-07-28T00:12:23.069Z,5.50
2022-07-28T00:13:56.499Z,5.37
2022-07-28T00:15:29.918Z,4.93
2022-07-28T00:17:03.218Z,4.33
2022-07-28T00:18:36.443Z,4.87
2022-07-28T00:20:10.930Z,4.13
2022-07-28T00:21:44.139Z,4.63
2022-07-28T00:23:17.419Z,7.67
2022-07-28T00:24:50.706Z,4.07
2022-07-28T00:26:24.374Z,5.60
2022-07-28T00:27:59.002Z,3.67
2022-07-28T00:29:50.011Z,5.30
2022-07-28T00:31:23.982Z,4.30
2022-07-28T00:32:57.319Z,5.07
2022-07-28T00:34:30.613Z,6.13
2022-07-28T00:36:04.386Z,4.97
2022-07-28T00:37:40.405Z,4.33
2022-07-28T00:39:13.821Z,6.20
2022-07-28T00:41:04.862Z,6.60
2022-07-28T00:42:38.403Z,4.67
2022-07-28T00:44:13.384Z,4.87
2022-07-28T00:45:47.451Z,5.07
2022-07-28T00:47:21.338Z,5.20
2022-07-28T00:48:55.919Z,5.13
2022-07-28T00:50:29.493Z,5.10
2022-07-28T00:52:03.712Z,7.70
2022-07-28T00:53:38.793Z,6.57
2022-07-28T00:55:12.850Z,6.80
2022-07-28T00:56:45.988Z,5.33
2022-07-28T00:58:18.162Z,6.37
2022-07-28T00:59:52.839Z,6.23
2022-07-28T01:01:26.159Z,5.63
2022-07-28T01:02:59.637Z,6.33
2022-07-28T01:04:33.322Z,3.83
2022-07-28T01:06:17.647Z,4.57
2022-07-28T01:07:59.280Z,5.43
2022-07-28T01:09:49.850Z,6.33
2022-07-28T01:11:32.224Z,8.77
2022-07-28T01:13:23.857Z,7.43
2022-07-28T01:15:04.650Z,6.13
2022-07-28T01:16:44.040Z,5.70
2022-07-28T01:18:19.809Z,4.27
2022-07-28T01:20:06.039Z,4.33
2022-07-28T01:21:42.909Z,8.27
2022-07-28T01:23:42.261Z,4.93
2022-07-28T01:25:24.369Z,5.20
2022-07-28T01:27:00.879Z,5.93
2022-07-28T01:28:45.468Z,5.17
2022-07-28T01:30:34.570Z,5.37
2022-07-28T01:32:14.686Z,6.70
2022-07-28T01:33:50.751Z,5.07
2022-07-28T01:35:28.272Z,7.30
2022-07-28T01:37:08.306Z,4.10
2022-07-28T01:38:42.432Z,6.03
2022-07-28T01:40:19.761Z,4.93
2022-07-28T01:41:56.063Z,4.50
2022-07-28T01:43:32.619Z,5.23
2022-07-28T01:45:08.008Z,4.17
2022-07-28T01:46:43.820Z,4.27
2022-07-28T01:48:20.139Z,4.60
2022-07-28T01:49:55.038Z,4.00
2022-07-28T01:51:31.925Z,6.17
2022-07-28T01:53:05.941Z,5.20
2022-07-28T01:54:41.871Z,4.87
2022-07-28T01:56:16.663Z,5.07
2022-07-28T01:57:51.940Z,4.13
2022-07-28T01:59:27.144Z,5.90
2022-07-28T02:01:01.720Z,4.33
2022-07-28T02:02:36.829Z,6.83
2022-07-28T02:04:11.334Z,5.20
2022-07-28T02:05:45.917Z,5.97
2022-07-28T02:07:20.948Z,4.00
2022-07-28T02:08:55.862Z,4.63
2022-07-28T02:10:31.161Z,5.63
2022-07-28T02:12:04.758Z,6.37
2022-07-28T02:13:39.291Z,6.63
2022-07-28T02:15:14.782Z,5.03
2022-07-28T02:16:49.697Z,7.60
2022-07-28T02:18:24.870Z,6.70
2022-07-28T02:19:59.193Z,5.03
2022-07-28T02:21:36.425Z,3.87
2022-07-28T02:23:10.909Z,7.20
2022-07-28T02:24:46.360Z,4.63
2022-07-28T02:26:22.856Z,5.13
2022-07-28T02:28:04.748Z,6.03
2022-07-28T02:29:51.173Z,5.37
2022-07-28T02:31:30.201Z,5.87
2022-07-28T02:33:09.490Z,5.30
2022-07-28T02:34:46.640Z,5.53
2022-07-28T02:36:26.957Z,4.47
2022-07-28T02:38:03.429Z,4.97
2022-07-28T02:39:42.014Z,6.50
2022-07-28T02:41:20.024Z,5.80
2022-07-28T02:42:55.570Z,8.33
2022-07-28T02:44:33.017Z,7.17
2022-07-28T02:46:11.816Z,6.57
2022-07-28T02:47:50.350Z,7.20
2022-07-28T02:49:26.666Z,7.33
2022-07-28T02:51:03.327Z,3.40
2022-07-28T02:52:37.800Z,5.47
2022-07-28T02:54:12.349Z,5.80
2022-07-28T02:55:49.000Z,6.00
2022-07-28T02:57:23.265Z,7.23
2022-07-28T02:58:57.299Z,8.27
2022-07-28T03:00:31.146Z,6.23
2022-07-28T03:02:04.281Z,6.33
2022-07-28T03:03:41.361Z,5.67
2022-07-28T03:05:18.054Z,5.43
2022-07-28T03:06:51.738Z,5.50
2022-07-28T03:08:25.382Z,5.57
2022-07-28T03:09:58.712Z,10.20
2022-07-28T03:11:31.952Z,6.43
2022-07-28T03:13:07.833Z,8.73
2022-07-28T03:14:40.602Z,7.30
2022-07-28T03:16:14.345Z,7.70
2022-07-28T03:17:48.075Z,6.23
2022-07-28T03:19:20.264Z,6.07
2022-07-28T03:20:53.576Z,6.27
2022-07-28T03:22:28.161Z,5.50
2022-07-28T03:24:01.763Z,7.40
2022-07-28T03:25:42.333Z,5.93
2022-07-28T03:27:23.156Z,7.03
2022-07-28T03:28:58.497Z,10.67
2022-07-28T03:30:38.212Z,6.40
2022-07-28T03:32:12.234Z,7.17
2022-07-28T03:33:45.656Z,6.53
2022-07-28T03:35:19.994Z,7.27
2022-07-28T03:37:01.160Z,7.30
2022-07-28T03:38:40.403Z,5.37
2022-07-28T03:40:15.704Z,5.80
2022-07-28T03:41:50.323Z,7.70
2022-07-28T03:43:26.722Z,4.67
2022-07-28T03:45:02.427Z,6.40
2022-07-28T03:46:35.986Z,7.63
2022-07-28T03:48:08.928Z,9.07
2022-07-28T03:49:42.553Z,4.80
2022-07-28T03:51:16.244Z,8.13
2022-07-28T03:52:49.557Z,6.03
2022-07-28T03:54:23.236Z,7.57
2022-07-28T03:55:58.095Z,6.53
2022-07-28T03:57:31.604Z,5.57
2022-07-28T03:59:04.878Z,5.57
2022-07-28T04:00:38.349Z,5.23
2022-07-28T04:02:11.676Z,4.47
2022-07-28T04:03:44.667Z,6.97
2022-07-28T04:05:19.270Z,6.07
2022-07-28T04:06:52.575Z,5.30
2022-07-28T04:08:25.805Z,7.33
2022-07-28T04:10:00.491Z,8.63
2022-07-28T04:11:33.677Z,4.30
2022-07-28T04:13:07.893Z,5.10
2022-07-28T04:14:41.263Z,5.50
2022-07-28T04:16:14.572Z,5.03
2022-07-28T04:17:48.772Z,4.57
2022-07-28T04:19:22.107Z,5.13
2022-07-28T04:20:55.922Z,8.43
2022-07-28T04:22:29.161Z,6.10
2022-07-28T04:24:02.362Z,6.00
2022-07-28T04:25:36.997Z,5.07
2022-07-28T04:27:13.590Z,4.87
2022-07-28T04:28:47.575Z,4.97
2022-07-28T04:30:24.866Z,6.07
2022-07-28T04:31:58.453Z,6.23
2022-07-28T04:33:31.754Z,4.87
2022-07-28T04:35:05.339Z,5.93
2022-07-28T04:36:42.186Z,6.30
2022-07-28T04:38:15.121Z,7.33
2022-07-28T04:39:49.103Z,6.23
2022-07-28T04:41:24.104Z,6.03
2022-07-28T04:42:57.487Z,5.80
2022-07-28T04:44:30.824Z,7.47
2022-07-28T04:46:04.171Z,7.87
2022-07-28T04:47:37.922Z,7.00
2022-07-28T04:49:11.327Z,7.47
2022-07-28T04:50:45.881Z,4.93
2022-07-28T04:52:19.172Z,8.07
2022-07-28T04:53:53.465Z,8.07
2022-07-28T04:55:25.953Z,6.70
2022-07-28T04:57:00.817Z,9.00
2022-07-28T04:58:39.569Z,4.87
2022-07-28T05:00:15.097Z,8.87
2022-07-28T05:01:48.402Z,9.13
2022-07-28T05:03:22.249Z,5.73
2022-07-28T05:04:54.683Z,9.83
2022-07-28T05:06:28.402Z,10.77
2022-07-28T05:08:01.990Z,10.20
2022-07-28T05:09:35.400Z,12.50
2022-07-28T05:11:09.295Z,8.10
2022-07-28T05:12:45.366Z,9.03
2022-07-28T05:14:19.280Z,8.23
2022-07-28T05:15:52.868Z,7.97
2022-07-28T05:17:25.690Z,10.03
2022-07-28T05:18:59.210Z,7.73
2022-07-28T05:20:33.417Z,8.53
2022-07-28T05:22:06.986Z,7.07
2022-07-28T05:23:43.171Z,8.87
2022-07-28T05:25:22.939Z,9.07
2022-07-28T05:26:56.171Z,6.93
2022-07-28T05:28:31.114Z,5.23
2022-07-28T05:30:04.939Z,9.03
2022-07-28T05:31:38.299Z,9.87
2022-07-28T05:33:11.635Z,8.10
2022-07-28T05:34:44.058Z,6.83
2022-07-28T05:36:17.345Z,8.37
2022-07-28T05:37:50.577Z,6.47
2022-07-28T05:39:24.405Z,6.70
2022-07-28T05:40:58.412Z,12.03
2022-07-28T05:42:35.937Z,7.53
2022-07-28T05:44:10.898Z,9.73
2022-07-28T05:45:44.591Z,9.57
2022-07-28T05:47:18.220Z,7.10
2022-07-28T05:48:51.861Z,9.50
2022-07-28T05:50:26.149Z,8.60
2022-07-28T05:51:59.447Z,7.60
2022-07-28T05:53:32.740Z,9.80
2022-07-28T05:55:07.639Z,10.00
2022-07-28T05:56:41.075Z,9.00
2022-07-28T05:58:14.503Z,8.83
2022-07-28T05:59:49.170Z,8.20
2022-07-28T06:01:22.601Z,12.87
2022-07-28T06:02:55.972Z,9.73
2022-07-28T06:04:29.687Z,10.53
2022-07-28T06:06:14.862Z,9.07
2022-07-28T06:07:49.811Z,11.67
2022-07-28T06:09:23.199Z,10.80
2022-07-28T06:11:09.186Z,10.27
2022-07-28T06:12:42.828Z,10.77
2022-07-28T06:14:16.344Z,11.73
2022-07-28T06:15:52.832Z,10.97
2022-07-28T06:17:26.205Z,10.50
2022-07-28T06:18:59.646Z,11.07
2022-07-28T06:20:31.887Z,10.37
2022-07-28T06:22:06.249Z,9.57
2022-07-28T06:23:39.512Z,14.07
2022-07-28T06:25:17.460Z,12.33
2022-07-28T06:26:50.741Z,10.20
2022-07-28T06:28:24.201Z,12.17
2022-07-28T06:29:59.027Z,13.18
2022-07-28T06:31:33.966Z,9.70
2022-07-28T06:33:07.777Z,10.67
2022-07-28T06:34:41.570Z,14.57
2022-07-28T06:36:15.032Z,9.07
2022-07-28T06:37:49.690Z,10.93
2022-07-28T06:39:23.447Z,10.17
2022-07-28T06:40:57.667Z,12.10
2022-07-28T06:42:30.960Z,10.33
2022-07-28T06:44:04.244Z,11.53
2022-07-28T06:45:42.112Z,12.67
2022-07-28T06:47:17.522Z,12.00
2022-07-28T06:48:51.081Z,12.17
2022-07-28T06:50:26.773Z,10.93
2022-07-28T06:52:00.464Z,18.97
2022-07-28T06:53:34.676Z,9.83
2022-07-28T06:55:09.223Z,9.97
2022-07-28T06:56:43.923Z,11.70
2022-07-28T06:58:22.729Z,10.40
2022-07-28T06:59:56.311Z,10.30
2022-07-28T07:01:29.614Z,12.70
2022-07-28T07:03:04.553Z,10.30
2022-07-28T07:04:38.470Z,14.33
2022-07-28T07:06:11.930Z,10.30
2022-07-28T07:07:45.154Z,12.00
2022-07-28T07:09:18.378Z,14.80
2022-07-28T07:10:51.689Z,10.03
2022-07-28T07:12:25.191Z,10.33
2022-07-28T07:13:58.407Z,13.07
2022-07-28T07:15:31.714Z,11.70
2022-07-28T07:17:08.183Z,6.80
2022-07-28T07:18:42.778Z,9.90
2022-07-28T07:20:17.182Z,9.20
2022-07-28T07:21:52.205Z,10.43
2022-07-28T07:23:25.501Z,11.73
2022-07-28T07:24:58.683Z,7.77
2022-07-28T07:26:32.077Z,18.30
2022-07-28T07:28:05.693Z,13.23
2022-07-28T07:29:38.961Z,9.63
2022-07-28T07:31:12.322Z,11.47
2022-07-28T07:32:46.043Z,8.70
2022-07-28T07:34:20.870Z,10.17
2022-07-28T07:35:54.058Z,10.70
2022-07-28T07:37:27.264Z,9.43
2022-07-28T07:39:00.711Z,10.80
2022-07-28T07:40:34.322Z,9.07
2022-07-28T07:42:08.081Z,9.40
2022-07-28T07:43:44.560Z,11.20
2022-07-28T07:45:21.072Z,10.53
2022-07-28T07:46:54.351Z,8.97
2022-07-28T07:48:27.639Z,10.03
2022-07-28T07:50:04.423Z,7.60
2022-07-28T07:51:37.987Z,9.97
2022-07-28T07:53:11.416Z,10.47
2022-07-28T07:54:45.466Z,6.87
2022-07-28T07:56:18.880Z,9.73
2022-07-28T07:57:52.189Z,8.43
2022-07-28T07:59:25.854Z,9.27
2022-07-28T08:00:59.233Z,10.80
2022-07-28T08:02:31.508Z,9.27
2022-07-28T08:04:04.866Z,9.83
2022-07-28T08:05:43.755Z,8.17
2022-07-28T08:07:17.056Z,6.80
2022-07-28T08:08:50.282Z,11.20
2022-07-28T08:10:23.765Z,10.53
2022-07-28T08:11:58.385Z,9.10
2022-07-28T08:13:31.646Z,7.90
2022-07-28T08:15:06.056Z,7.63
2022-07-28T08:16:39.495Z,9.30
2022-07-28T08:18:12.810Z,9.47
2022-07-28T08:19:46.275Z,10.20
2022-07-28T08:21:21.184Z,10.17
2022-07-28T08:22:57.258Z,8.20
2022-07-28T08:24:33.626Z,10.97
2022-07-28T08:26:08.268Z,10.97
2022-07-28T08:27:42.310Z,10.03
2022-07-28T08:29:17.580Z,9.97
2022-07-28T08:30:51.324Z,13.97
2022-07-28T08:32:24.737Z,11.30
2022-07-28T08:33:58.809Z,13.27
2022-07-28T08:35:35.100Z,9.60
2022-07-28T08:37:10.203Z,10.40
2022-07-28T08:38:45.944Z,9.47
2022-07-28T08:40:20.379Z,9.43
2022-07-28T08:42:00.128Z,9.80
2022-07-28T08:43:39.965Z,10.50
2022-07-28T08:45:15.116Z,6.83
2022-07-28T08:46:50.345Z,6.57
2022-07-28T08:48:24.502Z,5.37
2022-07-28T08:49:59.952Z,11.83
2022-07-28T08:51:33.701Z,10.10
2022-07-28T08:53:09.083Z,7.47
2022-07-28T08:54:49.135Z,8.63
2022-07-28T08:56:22.932Z,8.67
2022-07-28T08:57:58.646Z,10.23
2022-07-28T08:59:33.130Z,9.47
2022-07-28T09:01:08.524Z,9.20
2022-07-28T09:02:45.920Z,9.53
2022-07-28T09:04:21.089Z,10.20
2022-07-28T09:05:55.090Z,10.07
2022-07-28T09:07:31.575Z,12.00
2022-07-28T09:09:09.373Z,13.43
2022-07-28T09:10:44.104Z,15.07
2022-07-28T09:12:17.838Z,15.27
2022-07-28T09:13:54.048Z,15.37
2022-07-28T09:15:27.707Z,19.10
2022-07-28T09:17:03.412Z,11.73
2022-07-28T09:18:39.236Z,14.23
2022-07-28T09:20:13.895Z,17.60
2022-07-28T09:21:47.532Z,16.13
2022-07-28T09:23:43.532Z,14.53
2022-07-28T09:25:22.175Z,14.77
2022-07-28T09:27:10.509Z,16.03
2022-07-28T09:28:52.259Z,13.13
2022-07-28T09:30:32.083Z,12.07
2022-07-28T09:32:06.735Z,12.10
2022-07-28T09:33:41.932Z,12.67
2022-07-28T09:35:22.160Z,11.03
2022-07-28T09:36:55.719Z,11.60
2022-07-28T09:38:29.091Z,15.60
2022-07-28T09:40:12.068Z,14.87
2022-07-28T09:41:50.579Z,13.90
2022-07-28T09:43:33.309Z,12.43
2022-07-28T09:45:25.245Z,10.95
2022-07-28T09:47:01.319Z,15.23
2022-07-28T09:48:34.881Z,11.70
2022-07-28T09:50:20.450Z,10.45
2022-07-28T09:52:04.186Z,9.30
2022-07-28T09:53:36.444Z,7.32
2022-07-28T09:55:11.619Z,10.57
2022-07-28T09:56:46.107Z,9.70
2022-07-28T09:58:19.826Z,7.18
2022-07-28T09:59:55.972Z,7.10
2022-07-28T10:01:36.714Z,5.03
2022-07-28T10:03:10.561Z,2.65
2022-07-28T10:04:44.371Z,2.80
2022-07-28T10:06:24.994Z,4.70
2022-07-28T10:07:58.618Z,4.93
2022-07-28T10:09:31.875Z,3.20
2022-07-28T10:11:04.644Z,2.88
2022-07-28T10:12:39.595Z,4.20
2022-07-28T10:14:16.537Z,4.10
2022-07-28T10:16:10.939Z,4.57
2022-07-28T10:17:44.523Z,4.05
2022-07-28T10:19:17.809Z,3.58
2022-07-28T10:20:51.328Z,3.60
2022-07-28T10:22:28.814Z,2.28
2022-07-28T10:24:07.306Z,2.60
2022-07-28T10:25:44.339Z,1.35
2022-07-28T10:27:18.224Z,2.05
2022-07-28T10:28:52.994Z,3.53
2022-07-28T10:30:31.520Z,3.38
2022-07-28T10:32:07.562Z,3.33
2022-07-28T10:33:49.899Z,3.45
2022-07-28T10:35:23.378Z,4.18
2022-07-28T10:36:57.371Z,2.88
2022-07-28T10:38:36.989Z,3.17
2022-07-28T10:40:12.651Z,3.65
2022-07-28T10:41:46.740Z,3.55
2022-07-28T10:43:20.357Z,3.00
2022-07-28T10:44:55.763Z,2.28
2022-07-28T10:46:32.451Z,2.42
2022-07-28T10:48:06.580Z,4.00
2022-07-28T10:49:42.755Z,2.05
2022-07-28T10:51:16.540Z,3.80
2022-07-28T10:52:54.760Z,2.78
2022-07-28T10:54:35.682Z,4.18
2022-07-28T10:56:19.187Z,3.90
2022-07-28T10:58:02.213Z,3.13
2022-07-28T11:00:05.304Z,4.47
2022-07-28T11:01:48.996Z,2.83
2022-07-28T11:03:43.086Z,2.75
2022-07-28T11:05:34.345Z,3.65
2022-07-28T11:07:11.749Z,2.58
2022-07-28T11:08:47.618Z,5.82
2022-07-28T11:10:22.983Z,2.90
2022-07-28T11:12:52.344Z,2.85
2022-07-28T11:14:38.114Z,3.72
2022-07-28T11:16:23.028Z,3.95
2022-07-28T11:18:02.282Z,1.92
2022-07-28T11:20:25.163Z,3.08
2022-07-28T11:22:22.521Z,6.57
2022-07-28T11:23:57.678Z,2.00
2022-07-28T11:25:32.111Z,2.22
2022-07-28T11:27:05.761Z,3.83
2022-07-28T11:29:19.085Z,5.03
2022-07-28T11:30:54.487Z,3.53
2022-07-28T11:33:01.664Z,2.23
2022-07-28T11:35:09.815Z,3.20
2022-07-28T11:37:05.088Z,3.10
2022-07-28T11:38:38.413Z,3.53
2022-07-28T11:40:30.172Z,3.55
2022-07-28T11:42:26.043Z,2.65
2022-07-28T11:43:59.291Z,5.70
2022-07-28T11:45:38.476Z,3.65
2022-07-28T11:47:20.212Z,4.20
2022-07-28T11:49:28.797Z,1.95
2022-07-28T11:51:10.809Z,2.95
2022-07-28T11:52:54.399Z,4.25
2022-07-28T11:54:26.698Z,3.90
2022-07-28T11:56:02.858Z,2.88
2022-07-28T11:57:41.634Z,3.17
2022-07-28T11:59:16.550Z,2.47
2022-07-28T12:00:49.905Z,2.50
2022-07-28T12:02:25.828Z,1.73
2022-07-28T12:04:00.089Z,3.90
2022-07-28T12:05:41.649Z,3.17
2022-07-28T12:07:15.492Z,3.53
2022-07-28T12:08:53.628Z,2.28
2022-07-28T12:12:27.963Z,3.35
2022-07-28T12:14:02.328Z,2.67
2022-07-28T12:15:35.927Z,3.83
2022-07-28T12:17:08.495Z,3.60
2022-07-28T12:18:43.021Z,2.90
2022-07-28T12:20:18.663Z,2.00
2022-07-28T12:21:56.683Z,2.03
2022-07-28T12:23:38.765Z,1.92
2022-07-28T12:25:17.481Z,2.40
2022-07-28T12:26:53.294Z,2.70
2022-07-28T12:28:29.585Z,3.38
2022-07-28T12:30:04.661Z,2.88
2022-07-28T12:31:38.173Z,2.88
2022-07-28T12:33:18.891Z,4.55
2022-07-28T12:34:52.209Z,3.35
2022-07-28T12:36:26.085Z,2.28
2022-07-28T12:38:00.801Z,4.60
2022-07-28T12:39:38.529Z,5.43
2022-07-28T12:41:16.312Z,3.50
2022-07-28T12:42:56.401Z,4.32
2022-07-28T12:44:35.370Z,3.95
2022-07-28T12:46:08.709Z,4.70
2022-07-28T12:47:42.106Z,3.45
2022-07-28T12:49:22.662Z,3.42
2022-07-28T12:50:56.015Z,5.90
2022-07-28T12:52:29.275Z,5.63
2022-07-28T12:54:05.295Z,5.68
2022-07-28T12:55:40.041Z,3.80
2022-07-28T12:57:13.423Z,4.63
2022-07-28T12:58:47.169Z,3.53
2022-07-28T13:00:23.357Z,4.82
2022-07-28T13:01:58.261Z,5.53
2022-07-28T13:03:32.486Z,4.53
2022-07-28T13:05:07.810Z,5.00
2022-07-28T13:06:41.993Z,5.88
2022-07-28T13:08:15.428Z,4.15
2022-07-28T13:10:05.604Z,6.88
2022-07-28T13:11:47.731Z,4.65
2022-07-28T13:13:21.639Z,3.42
2022-07-28T13:14:58.004Z,5.47
2022-07-28T13:16:31.452Z,5.18
2022-07-28T13:18:05.273Z,10.30
2022-07-28T13:19:38.911Z,7.63
2022-07-28T13:21:12.210Z,6.65
2022-07-28T13:22:45.764Z,5.07
2022-07-28T13:24:19.854Z,5.93
2022-07-28T13:25:54.908Z,5.55
2022-07-28T13:27:29.423Z,5.22
2022-07-28T13:29:03.152Z,4.65
2022-07-28T13:30:46.096Z,3.80
2022-07-28T13:32:19.605Z,3.10
2022-07-28T13:33:53.019Z,4.35
2022-07-28T13:35:26.797Z,5.25
2022-07-28T13:37:00.336Z,4.60
2022-07-28T13:38:33.602Z,6.50
2022-07-28T13:40:07.955Z,5.70
2022-07-28T13:41:56.553Z,7.87
2022-07-28T13:43:35.694Z,6.32
2022-07-28T13:45:09.906Z,5.20
2022-07-28T13:46:45.418Z,5.33
2022-07-28T13:48:20.707Z,6.55
2022-07-28T13:49:54.065Z,5.63
2022-07-28T13:51:27.311Z,5.25
2022-07-28T13:53:00.521Z,5.38
2022-07-28T13:54:35.369Z,5.57
2022-07-28T13:56:10.027Z,6.43
2022-07-28T13:57:44.857Z,5.00
2022-07-28T13:59:24.093Z,4.85
2022-07-28T14:01:00.348Z,5.15
2022-07-28T14:02:33.924Z,5.95
2022-07-28T14:04:07.850Z,4.35
2022-07-28T14:05:41.086Z,3.67
2022-07-28T14:07:16.283Z,9.40
2022-07-28T14:08:55.046Z,12.18
2022-07-28T14:10:35.895Z,9.00
2022-07-28T14:12:10.348Z,9.27
2022-07-28T14:13:45.096Z,6.82
2022-07-28T14:15:18.312Z,7.38
2022-07-28T14:16:51.795Z,9.30
2022-07-28T14:18:25.101Z,7.70
2022-07-28T14:19:59.700Z,8.10
2022-07-28T14:21:32.927Z,7.30
2022-07-28T14:23:07.307Z,6.07
2022-07-28T14:24:40.504Z,5.87
2022-07-28T14:26:35.033Z,6.38
2022-07-28T14:28:07.203Z,7.35
2022-07-28T14:29:43.330Z,7.05
2022-07-28T14:31:18.103Z,5.57
2022-07-28T14:32:52.932Z,6.77
2022-07-28T14:34:26.205Z,7.07
2022-07-28T14:35:59.549Z,7.97
2022-07-28T14:37:47.429Z,6.43
2022-07-28T14:39:26.302Z,7.40
2022-07-28T14:40:59.735Z,5.70
2022-07-28T14:42:33.060Z,6.03
2022-07-28T14:44:06.465Z,5.20
2022-07-28T14:46:12.300Z,3.60
2022-07-28T14:47:44.373Z,6.00
2022-07-28T14:49:19.011Z,4.60
2022-07-28T14:50:55.313Z,5.13
2022-07-28T14:52:29.459Z,16.33
2022-07-28T14:54:02.985Z,5.17
2022-07-28T14:55:36.182Z,5.40
2022-07-28T14:57:09.465Z,8.10
2022-07-28T14:58:43.718Z,5.23
2022-07-28T15:00:18.328Z,7.50
2022-07-28T15:01:53.129Z,6.97
2022-07-28T15:03:35.781Z,7.43
2022-07-28T15:05:11.219Z,6.43
2022-07-28T15:06:44.571Z,7.43
2022-07-28T15:08:17.792Z,6.40
2022-07-28T15:09:51.267Z,8.60
2022-07-28T15:11:24.578Z,10.80
2022-07-28T15:12:57.887Z,11.07
2022-07-28T15:14:31.159Z,16.47
2022-07-28T15:16:04.638Z,15.40
2022-07-28T15:17:40.060Z,12.87
2022-07-28T15:19:13.346Z,12.88
2022-07-28T15:20:48.325Z,8.17
2022-07-28T15:22:21.611Z,4.77
2022-07-28T15:23:59.721Z,7.43
2022-07-28T15:25:33.551Z,6.63
2022-07-28T15:27:06.777Z,7.23
2022-07-28T15:28:40.900Z,5.10
2022-07-28T15:30:15.174Z,7.23
2022-07-28T15:31:49.169Z,9.07
2022-07-28T15:33:25.510Z,10.07
2022-07-28T15:34:58.980Z,8.57
2022-07-28T15:36:34.900Z,7.57
2022-07-28T15:38:08.271Z,11.40
2022-07-28T15:39:44.991Z,10.30
2022-07-28T15:41:19.357Z,8.47
2022-07-28T15:42:52.971Z,8.17
2022-07-28T15:44:26.583Z,11.53
2022-07-28T15:46:03.219Z,9.00
2022-07-28T15:47:36.653Z,9.23
2022-07-28T15:49:12.567Z,9.90
2022-07-28T15:50:48.587Z,12.50
2022-07-28T15:52:21.956Z,12.53
2022-07-28T15:53:56.381Z,9.97
2022-07-28T15:55:29.731Z,11.70
2022-07-28T15:57:03.044Z,11.87
2022-07-28T15:58:36.915Z,9.87
2022-07-28T16:00:10.930Z,9.17
2022-07-28T16:01:45.759Z,11.20
2022-07-28T16:03:19.292Z,11.43
2022-07-28T16:04:54.549Z,8.67
2022-07-28T16:06:48.593Z,7.33
2022-07-28T16:08:23.293Z,8.03
2022-07-28T16:09:57.636Z,12.23
2022-07-28T16:11:30.876Z,12.47
2022-07-28T16:13:04.301Z,10.23
2022-07-28T16:14:37.671Z,12.23
2022-07-28T16:16:12.607Z,9.83
2022-07-28T16:17:47.526Z,10.87
2022-07-28T16:19:46.650Z,10.90
2022-07-28T16:21:15.731Z,6.13
2022-07-28T16:22:49.136Z,7.67
2022-07-28T16:24:22.806Z,8.37
2022-07-28T16:25:56.093Z,4.23
2022-07-28T16:27:29.339Z,7.50
2022-07-28T16:29:02.710Z,5.70
2022-07-28T16:30:36.286Z,4.90
2022-07-28T16:32:09.568Z,5.70
2022-07-28T16:33:42.875Z,5.27
2022-07-28T16:35:16.676Z,5.20
2022-07-28T16:36:51.372Z,6.33
2022-07-28T16:38:24.617Z,5.73
2022-07-28T16:39:58.526Z,8.80
2022-07-28T16:41:47.604Z,8.33
2022-07-28T16:43:21.793Z,5.87
2022-07-28T16:44:55.132Z,7.90
2022-07-28T16:46:28.921Z,9.60
2022-07-28T16:48:03.823Z,9.13
2022-07-28T16:49:42.080Z,8.63
2022-07-28T16:51:18.901Z,11.80
2022-07-28T16:52:55.686Z,9.37
2022-07-28T16:54:29.101Z,9.47
2022-07-28T16:56:02.448Z,11.27
2022-07-28T16:57:35.674Z,12.33
2022-07-28T16:59:08.985Z,8.83
2022-07-28T17:00:42.414Z,9.50
2022-07-28T17:02:15.828Z,9.33
2022-07-28T17:03:49.075Z,7.97
2022-07-28T17:05:22.987Z,7.97
2022-07-28T17:06:56.607Z,10.03
2022-07-28T17:08:31.303Z,10.73
2022-07-28T17:10:05.070Z,11.47
2022-07-28T17:11:38.358Z,13.03
2022-07-28T17:13:13.259Z,11.43
2022-07-28T17:14:46.645Z,15.97
2022-07-28T17:16:19.991Z,13.53
2022-07-28T17:17:54.238Z,12.17
2022-07-28T17:19:27.530Z,14.90
2022-07-28T17:21:06.680Z,13.63
2022-07-28T17:22:40.317Z,11.93
2022-07-28T17:24:15.638Z,11.07
2022-07-28T17:26:35.213Z,11.27
2022-07-28T17:27:47.855Z,9.47
2022-07-28T17:29:21.608Z,8.40
2022-07-28T17:30:55.003Z,6.27
2022-07-28T17:32:28.464Z,8.07
2022-07-28T17:34:01.844Z,7.60
2022-07-28T17:35:35.667Z,8.17
2022-07-28T17:37:09.175Z,8.57
2022-07-28T17:38:42.953Z,7.33
2022-07-28T17:40:17.713Z,10.27
2022-07-28T17:41:52.411Z,5.53
2022-07-28T17:43:28.106Z,5.50
2022-07-28T17:45:01.431Z,6.23
2022-07-28T17:46:36.034Z,4.63
2022-07-28T17:48:09.335Z,4.80
2022-07-28T17:49:45.486Z,5.23
2022-07-28T17:51:19.314Z,3.70
2022-07-28T17:52:52.583Z,4.23
2022-07-28T17:54:26.130Z,3.33
2022-07-28T17:56:01.287Z,7.57
2022-07-28T17:57:37.746Z,4.50
2022-07-28T17:59:13.692Z,6.03
2022-07-28T18:00:50.451Z,5.83
2022-07-28T18:02:23.831Z,4.17
2022-07-28T18:04:00.679Z,6.77
2022-07-28T18:05:34.498Z,4.27
2022-07-28T18:07:07.882Z,5.43
2022-07-28T18:08:41.135Z,5.30
2022-07-28T18:10:14.466Z,4.07
2022-07-28T18:11:56.763Z,4.97
2022-07-28T18:13:31.885Z,5.73
2022-07-28T18:15:05.682Z,3.30
2022-07-28T18:16:38.961Z,4.20
2022-07-28T18:18:12.571Z,4.37
2022-07-28T18:19:45.861Z,6.30
2022-07-28T18:21:19.179Z,5.53
2022-07-28T18:22:52.550Z,3.20
2022-07-28T18:24:26.358Z,5.03
2022-07-28T18:25:59.654Z,3.17
2022-07-28T18:27:34.341Z,3.97
2022-07-28T18:29:07.566Z,2.77
2022-07-28T18:30:41.174Z,5.97
2022-07-28T18:32:15.704Z,3.90
2022-07-28T18:33:49.414Z,4.07
2022-07-28T18:35:23.221Z,5.40
2022-07-28T18:36:56.501Z,5.67
2022-07-28T18:38:29.800Z,4.20
2022-07-28T18:40:03.071Z,2.87
2022-07-28T18:41:47.003Z,2.13
2022-07-28T18:43:22.610Z,7.37
2022-07-28T18:44:55.897Z,3.00
2022-07-28T18:46:29.226Z,4.47
2022-07-28T18:48:04.287Z,4.47
2022-07-28T18:49:38.058Z,7.27
2022-07-28T18:51:11.655Z,6.13
2022-07-28T18:52:45.193Z,4.13
2022-07-28T18:54:27.133Z,3.67
2022-07-28T18:56:01.203Z,5.60
2022-07-28T18:57:34.440Z,3.47
2022-07-28T18:59:10.488Z,3.53
2022-07-28T19:00:43.726Z,4.37
2022-07-28T19:02:17.658Z,2.87
2022-07-28T19:03:51.269Z,5.77
2022-07-28T19:05:24.545Z,3.17
2022-07-28T19:06:59.159Z,4.67
2022-07-28T19:08:32.574Z,4.23
2022-07-28T19:10:07.386Z,2.43
2022-07-28T19:11:45.668Z,4.70
2022-07-28T19:13:19.680Z,3.23
2022-07-28T19:14:54.295Z,4.27
2022-07-28T19:16:27.007Z,3.27
2022-07-28T19:18:10.039Z,1.40
2022-07-28T19:19:45.380Z,2.73
2022-07-28T19:21:18.982Z,3.07
2022-07-28T19:22:52.414Z,2.83
2022-07-28T19:24:25.629Z,1.83
2022-07-28T19:26:02.061Z,6.93
2022-07-28T19:27:36.269Z,2.10
2022-07-28T19:29:09.972Z,2.23
2022-07-28T19:30:45.394Z,2.37
2022-07-28T19:32:18.797Z,3.10
2022-07-28T19:33:55.437Z,2.83
2022-07-28T19:35:28.774Z,2.77
2022-07-28T19:37:02.015Z,4.43
2022-07-28T19:38:35.276Z,3.83
2022-07-28T19:40:10.460Z,3.73
2022-07-28T19:41:43.807Z,3.70
2022-07-28T19:43:17.040Z,2.20
2022-07-28T19:44:55.657Z,2.83
2022-07-28T19:46:30.759Z,3.60
2022-07-28T19:48:04.160Z,4.80
2022-07-28T19:49:39.348Z,2.83
2022-07-28T19:51:12.772Z,4.70
2022-07-28T19:52:46.109Z,8.30
2022-07-28T19:54:21.333Z,4.33
2022-07-28T19:55:54.834Z,8.40
2022-07-28T19:57:28.131Z,9.47
2022-07-28T19:59:01.604Z,7.00
2022-07-28T20:00:35.214Z,6.50
2022-07-28T20:02:10.708Z,3.27
2022-07-28T20:04:00.995Z,3.67
2022-07-28T20:05:37.387Z,4.63
2022-07-28T20:07:10.673Z,4.30
2022-07-28T20:08:44.034Z,3.80
2022-07-28T20:10:17.497Z,8.67
2022-07-28T20:11:51.168Z,4.87
2022-07-28T20:13:24.533Z,5.23
2022-07-28T20:14:57.804Z,3.07
2022-07-28T20:16:31.688Z,4.43
2022-07-28T20:18:06.819Z,7.40
2022-07-28T20:19:40.131Z,6.27
2022-07-28T20:21:15.023Z,5.30
2022-07-28T20:22:48.751Z,3.03
2022-07-28T20:24:22.451Z,4.90
2022-07-28T20:25:57.635Z,3.40
2022-07-28T20:27:30.869Z,3.43
2022-07-28T20:29:05.924Z,5.03
2022-07-28T20:30:39.435Z,3.30
2022-07-28T20:32:12.756Z,3.30
2022-07-28T20:33:48.131Z,2.00
2022-07-28T20:35:21.564Z,2.57
2022-07-28T20:36:55.228Z,6.33
2022-07-28T20:38:28.568Z,5.43
2022-07-28T20:40:01.936Z,4.77
2022-07-28T20:41:36.194Z,3.07
2022-07-28T20:43:09.430Z,4.20
2022-07-28T20:44:42.780Z,4.47
2022-07-28T20:46:19.539Z,2.87
2022-07-28T20:47:53.172Z,3.97
2022-07-28T20:49:28.811Z,5.77
2022-07-28T20:51:02.310Z,4.10
2022-07-28T20:52:35.611Z,5.33
2022-07-28T20:54:09.015Z,4.00
2022-07-28T20:55:42.286Z,4.43
2022-07-28T20:57:16.070Z,4.43
2022-07-28T20:58:49.358Z,5.43
2022-07-28T21:00:22.088Z,4.43
2022-07-28T21:01:55.551Z,5.03
2022-07-28T21:03:28.858Z,4.70
2022-07-28T21:05:04.016Z,5.00
2022-07-28T21:06:37.898Z,4.17
2022-07-28T21:08:17.014Z,4.40
2022-07-28T21:09:50.578Z,3.73
2022-07-28T21:11:24.004Z,4.40